sensor_id;sensor_type;location;lat;lon;timestamp;temperature;humidity
15239;DHT22;7722;53.274;9.500;2023-02-20T00:00:58;5.20;99.90
15239;DHT22;7722;53.274;9.500;2023-02-20T00:03:27;5.20;99.90
15239;DHT22;7722;53.274;9.500;2023-02-20T00:05:55;5.20;99.90
15239;DHT22;7722;53.274;9.500;2023-02-20T00:08:22;5.30;99.90
15239;DHT22;7722;53.274;9.500;2023-02-20T00:10:49;5.30;99.90
15239;DHT22;7722;53.274;9.500;2023-02-20T00:13:16;5.20;99.90
15239;DHT22;7722;53.274;9.500;2023-02-20T00:15:43;5.30;99.90
15239;DHT22;7722;53.274;9.500;2023-02-20T00:18:10;5.20;99.90
15239;DHT22;7722;53.274;9.500;2023-02-20T00:20:38;5.30;99.90
15239;DHT22;7722;53.274;9.500;2023-02-20T00:23:05;5.30;99.90
15239;DHT22;7722;53.274;9.500;2023-02-20T00:25:32;5.30;99.90
15239;DHT22;7722;53.274;9.500;2023-02-20T00:28:00;5.40;99.90
15239;DHT22;7722;53.274;9.500;2023-02-20T00:30:28;5.40;99.90
15239;DHT22;7722;53.274;9.500;2023-02-20T00:32:55;5.40;99.90
15239;DHT22;7722;53.274;9.500;2023-02-20T00:35:25;5.30;99.90
15239;DHT22;7722;53.274;9.500;2023-02-20T00:37:55;5.30;99.90
15239;DHT22;7722;53.274;9.500;2023-02-20T00:40:23;5.30;99.90
15239;DHT22;7722;53.274;9.500;2023-02-20T00:42:50;5.30;99.90
15239;DHT22;7722;53.274;9.500;2023-02-20T00:45:18;5.40;99.90
15239;DHT22;7722;53.274;9.500;2023-02-20T00:47:45;5.40;99.90
15239;DHT22;7722;53.274;9.500;2023-02-20T00:50:12;5.40;99.90
15239;DHT22;7722;53.274;9.500;2023-02-20T00:52:40;5.40;99.90
15239;DHT22;7722;53.274;9.500;2023-02-20T00:55:08;5.40;99.90
15239;DHT22;7722;53.274;9.500;2023-02-20T00:57:35;5.40;99.90
15239;DHT22;7722;53.274;9.500;2023-02-20T01:00:04;5.40;99.90
15239;DHT22;7722;53.274;9.500;2023-02-20T01:02:32;5.40;99.90
15239;DHT22;7722;53.274;9.500;2023-02-20T01:04:59;5.40;99.90
15239;DHT22;7722;53.274;9.500;2023-02-20T01:07:26;5.40;99.90
15239;DHT22;7722;53.274;9.500;2023-02-20T01:09:52;5.50;99.90
15239;DHT22;7722;53.274;9.500;2023-02-20T01:12:21;5.50;99.90
15239;DHT22;7722;53.274;9.500;2023-02-20T01:14:48;5.50;99.90
15239;DHT22;7722;53.274;9.500;2023-02-20T01:17:15;5.40;99.90
15239;DHT22;7722;53.274;9.500;2023-02-20T01:19:50;5.50;99.90
15239;DHT22;7722;53.274;9.500;2023-02-20T01:22:17;5.40;99.90
15239;DHT22;7722;53.274;9.500;2023-02-20T01:24:44;5.40;99.90
15239;DHT22;7722;53.274;9.500;2023-02-20T01:27:11;5.40;99.90
15239;DHT22;7722;53.274;9.500;2023-02-20T01:29:39;5.50;99.90
15239;DHT22;7722;53.274;9.500;2023-02-20T01:32:06;5.50;99.90
15239;DHT22;7722;53.274;9.500;2023-02-20T01:34:33;5.50;99.90
15239;DHT22;7722;53.274;9.500;2023-02-20T01:37:00;5.50;99.90
15239;DHT22;7722;53.274;9.500;2023-02-20T01:39:28;5.40;99.90
15239;DHT22;7722;53.274;9.500;2023-02-20T01:41:59;5.40;99.90
15239;DHT22;7722;53.274;9.500;2023-02-20T01:44:28;5.40;99.90
15239;DHT22;7722;53.274;9.500;2023-02-20T01:46:57;5.40;99.90
15239;DHT22;7722;53.274;9.500;2023-02-20T01:49:28;5.40;99.90
15239;DHT22;7722;53.274;9.500;2023-02-20T01:52:02;5.30;99.90
15239;DHT22;7722;53.274;9.500;2023-02-20T01:54:31;5.30;99.90
15239;DHT22;7722;53.274;9.500;2023-02-20T01:57:00;5.40;99.90
15239;DHT22;7722;53.274;9.500;2023-02-20T01:59:30;5.30;99.90
15239;DHT22;7722;53.274;9.500;2023-02-20T02:02:01;5.40;99.90
15239;DHT22;7722;53.274;9.500;2023-02-20T02:04:29;5.40;99.90
15239;DHT22;7722;53.274;9.500;2023-02-20T02:06:56;5.50;99.90
15239;DHT22;7722;53.274;9.500;2023-02-20T02:09:34;5.50;99.90
15239;DHT22;7722;53.274;9.500;2023-02-20T02:12:03;5.50;99.90
15239;DHT22;7722;53.274;9.500;2023-02-20T02:14:30;5.50;99.90
15239;DHT22;7722;53.274;9.500;2023-02-20T02:17:19;5.50;99.90
15239;DHT22;7722;53.274;9.500;2023-02-20T02:26:27;5.60;99.90
15239;DHT22;7722;53.274;9.500;2023-02-20T02:29:24;5.60;99.90
15239;DHT22;7722;53.274;9.500;2023-02-20T02:35:33;5.70;99.90
15239;DHT22;7722;53.274;9.500;2023-02-20T02:38:15;5.70;99.90
15239;DHT22;7722;53.274;9.500;2023-02-20T02:40:46;5.80;99.90
15239;DHT22;7722;53.274;9.500;2023-02-20T02:43:23;5.80;99.90
15239;DHT22;7722;53.274;9.500;2023-02-20T02:45:54;5.80;99.90
15239;DHT22;7722;53.274;9.500;2023-02-20T02:48:27;5.90;99.90
15239;DHT22;7722;53.274;9.500;2023-02-20T02:51:00;5.90;99.90
15239;DHT22;7722;53.274;9.500;2023-02-20T02:53:30;5.90;99.90
15239;DHT22;7722;53.274;9.500;2023-02-20T02:55:57;6.00;99.90
15239;DHT22;7722;53.274;9.500;2023-02-20T02:58:44;6.00;99.90
15239;DHT22;7722;53.274;9.500;2023-02-20T03:01:12;6.00;99.90
15239;DHT22;7722;53.274;9.500;2023-02-20T03:03:42;6.00;99.90
15239;DHT22;7722;53.274;9.500;2023-02-20T03:06:12;6.00;99.90
15239;DHT22;7722;53.274;9.500;2023-02-20T03:08:44;6.00;99.90
15239;DHT22;7722;53.274;9.500;2023-02-20T03:11:16;6.00;99.90
15239;DHT22;7722;53.274;9.500;2023-02-20T03:13:48;6.10;99.90
15239;DHT22;7722;53.274;9.500;2023-02-20T03:16:40;6.10;99.90
15239;DHT22;7722;53.274;9.500;2023-02-20T03:19:11;6.10;99.90
15239;DHT22;7722;53.274;9.500;2023-02-20T03:21:42;6.10;99.90
15239;DHT22;7722;53.274;9.500;2023-02-20T03:24:12;6.10;99.90
15239;DHT22;7722;53.274;9.500;2023-02-20T03:26:41;6.10;99.90
15239;DHT22;7722;53.274;9.500;2023-02-20T03:29:13;6.10;99.90
15239;DHT22;7722;53.274;9.500;2023-02-20T03:31:44;6.20;99.90
15239;DHT22;7722;53.274;9.500;2023-02-20T03:34:15;6.10;99.90
15239;DHT22;7722;53.274;9.500;2023-02-20T03:37:05;6.10;99.90
15239;DHT22;7722;53.274;9.500;2023-02-20T03:39:55;6.10;99.90
15239;DHT22;7722;53.274;9.500;2023-02-20T03:42:45;6.10;99.90
15239;DHT22;7722;53.274;9.500;2023-02-20T03:45:31;6.20;99.90
15239;DHT22;7722;53.274;9.500;2023-02-20T03:48:03;6.30;99.90
15239;DHT22;7722;53.274;9.500;2023-02-20T03:50:33;6.20;99.90
15239;DHT22;7722;53.274;9.500;2023-02-20T03:53:17;6.30;99.90
15239;DHT22;7722;53.274;9.500;2023-02-20T03:55:48;6.30;99.90
15239;DHT22;7722;53.274;9.500;2023-02-20T03:58:19;6.30;99.90
15239;DHT22;7722;53.274;9.500;2023-02-20T04:00:49;6.30;99.90
15239;DHT22;7722;53.274;9.500;2023-02-20T04:03:22;6.30;99.90
15239;DHT22;7722;53.274;9.500;2023-02-20T04:05:51;6.30;99.90
15239;DHT22;7722;53.274;9.500;2023-02-20T04:08:21;6.30;99.90
15239;DHT22;7722;53.274;9.500;2023-02-20T04:10:54;6.30;99.90
15239;DHT22;7722;53.274;9.500;2023-02-20T04:13:23;6.30;99.90
15239;DHT22;7722;53.274;9.500;2023-02-20T04:15:52;6.20;99.90
15239;DHT22;7722;53.274;9.500;2023-02-20T04:18:20;6.20;99.90
15239;DHT22;7722;53.274;9.500;2023-02-20T04:20:52;6.20;99.90
15239;DHT22;7722;53.274;9.500;2023-02-20T04:23:21;6.10;99.90
15239;DHT22;7722;53.274;9.500;2023-02-20T04:25:54;6.10;99.90
15239;DHT22;7722;53.274;9.500;2023-02-20T04:28:22;6.00;99.90
15239;DHT22;7722;53.274;9.500;2023-02-20T04:30:50;6.00;99.90
15239;DHT22;7722;53.274;9.500;2023-02-20T04:33:18;6.00;99.90
15239;DHT22;7722;53.274;9.500;2023-02-20T04:35:45;5.90;99.90
15239;DHT22;7722;53.274;9.500;2023-02-20T04:38:13;6.00;99.90
15239;DHT22;7722;53.274;9.500;2023-02-20T04:40:40;6.10;99.90
15239;DHT22;7722;53.274;9.500;2023-02-20T04:43:08;6.00;99.90
15239;DHT22;7722;53.274;9.500;2023-02-20T04:45:35;6.00;99.90
15239;DHT22;7722;53.274;9.500;2023-02-20T04:48:03;6.00;99.90
15239;DHT22;7722;53.274;9.500;2023-02-20T04:50:31;6.00;99.90
15239;DHT22;7722;53.274;9.500;2023-02-20T04:52:59;6.00;99.90
15239;DHT22;7722;53.274;9.500;2023-02-20T04:55:26;6.00;99.90
15239;DHT22;7722;53.274;9.500;2023-02-20T04:57:54;6.00;99.90
15239;DHT22;7722;53.274;9.500;2023-02-20T05:00:25;6.00;99.90
15239;DHT22;7722;53.274;9.500;2023-02-20T05:02:53;6.00;99.90
15239;DHT22;7722;53.274;9.500;2023-02-20T05:05:22;6.10;99.90
15239;DHT22;7722;53.274;9.500;2023-02-20T05:07:53;6.10;99.90
15239;DHT22;7722;53.274;9.500;2023-02-20T05:10:21;6.10;99.90
15239;DHT22;7722;53.274;9.500;2023-02-20T05:12:48;6.10;99.90
15239;DHT22;7722;53.274;9.500;2023-02-20T05:15:15;6.10;99.90
15239;DHT22;7722;53.274;9.500;2023-02-20T05:17:44;6.10;99.90
15239;DHT22;7722;53.274;9.500;2023-02-20T05:20:16;6.10;99.90
15239;DHT22;7722;53.274;9.500;2023-02-20T05:22:44;6.10;99.90
15239;DHT22;7722;53.274;9.500;2023-02-20T05:25:11;6.10;99.90
15239;DHT22;7722;53.274;9.500;2023-02-20T05:27:39;6.10;99.90
15239;DHT22;7722;53.274;9.500;2023-02-20T05:30:09;6.10;99.90
15239;DHT22;7722;53.274;9.500;2023-02-20T05:32:36;6.10;99.90
15239;DHT22;7722;53.274;9.500;2023-02-20T05:35:05;6.10;99.90
15239;DHT22;7722;53.274;9.500;2023-02-20T05:37:32;6.10;99.90
15239;DHT22;7722;53.274;9.500;2023-02-20T05:39:59;6.10;99.90
15239;DHT22;7722;53.274;9.500;2023-02-20T05:42:26;6.10;99.90
15239;DHT22;7722;53.274;9.500;2023-02-20T05:44:53;6.10;99.90
15239;DHT22;7722;53.274;9.500;2023-02-20T05:47:20;6.10;99.90
15239;DHT22;7722;53.274;9.500;2023-02-20T05:49:47;6.10;99.90
15239;DHT22;7722;53.274;9.500;2023-02-20T05:52:16;6.10;99.90
15239;DHT22;7722;53.274;9.500;2023-02-20T05:54:45;6.10;99.90
15239;DHT22;7722;53.274;9.500;2023-02-20T05:57:12;6.10;99.90
15239;DHT22;7722;53.274;9.500;2023-02-20T05:59:39;6.10;99.90
15239;DHT22;7722;53.274;9.500;2023-02-20T06:02:06;6.10;99.90
15239;DHT22;7722;53.274;9.500;2023-02-20T06:04:33;6.10;99.90
15239;DHT22;7722;53.274;9.500;2023-02-20T06:07:00;6.10;99.90
15239;DHT22;7722;53.274;9.500;2023-02-20T06:09:29;6.10;99.90
15239;DHT22;7722;53.274;9.500;2023-02-20T06:11:56;6.20;99.90
15239;DHT22;7722;53.274;9.500;2023-02-20T06:14:24;6.10;99.90
15239;DHT22;7722;53.274;9.500;2023-02-20T06:16:51;6.10;99.90
15239;DHT22;7722;53.274;9.500;2023-02-20T06:19:19;6.20;99.90
15239;DHT22;7722;53.274;9.500;2023-02-20T06:21:47;6.20;99.90
15239;DHT22;7722;53.274;9.500;2023-02-20T06:24:14;6.20;99.90
15239;DHT22;7722;53.274;9.500;2023-02-20T06:26:43;6.20;99.90
15239;DHT22;7722;53.274;9.500;2023-02-20T06:29:11;6.20;99.90
15239;DHT22;7722;53.274;9.500;2023-02-20T06:31:38;6.20;99.90
15239;DHT22;7722;53.274;9.500;2023-02-20T06:34:06;6.20;99.90
15239;DHT22;7722;53.274;9.500;2023-02-20T06:36:35;6.20;99.90
15239;DHT22;7722;53.274;9.500;2023-02-20T06:39:03;6.20;99.90
15239;DHT22;7722;53.274;9.500;2023-02-20T06:41:30;6.30;99.90
15239;DHT22;7722;53.274;9.500;2023-02-20T06:43:58;6.40;99.90
15239;DHT22;7722;53.274;9.500;2023-02-20T06:46:25;6.40;99.90
15239;DHT22;7722;53.274;9.500;2023-02-20T06:48:54;6.50;99.90
15239;DHT22;7722;53.274;9.500;2023-02-20T06:51:24;6.50;99.90
15239;DHT22;7722;53.274;9.500;2023-02-20T06:53:51;6.60;99.90
15239;DHT22;7722;53.274;9.500;2023-02-20T06:56:20;6.60;99.90
15239;DHT22;7722;53.274;9.500;2023-02-20T06:58:48;6.60;99.90
15239;DHT22;7722;53.274;9.500;2023-02-20T07:01:18;6.70;99.90
15239;DHT22;7722;53.274;9.500;2023-02-20T07:03:46;6.70;99.90
15239;DHT22;7722;53.274;9.500;2023-02-20T07:06:14;6.70;99.90
15239;DHT22;7722;53.274;9.500;2023-02-20T07:08:42;6.70;99.90
15239;DHT22;7722;53.274;9.500;2023-02-20T07:11:09;6.70;99.90
15239;DHT22;7722;53.274;9.500;2023-02-20T07:13:37;6.70;99.90
15239;DHT22;7722;53.274;9.500;2023-02-20T07:16:04;6.80;99.90
15239;DHT22;7722;53.274;9.500;2023-02-20T07:18:33;6.80;99.90
15239;DHT22;7722;53.274;9.500;2023-02-20T07:21:00;6.80;99.90
15239;DHT22;7722;53.274;9.500;2023-02-20T07:23:27;6.80;99.90
15239;DHT22;7722;53.274;9.500;2023-02-20T07:25:54;6.80;99.90
15239;DHT22;7722;53.274;9.500;2023-02-20T07:28:21;6.80;99.90
15239;DHT22;7722;53.274;9.500;2023-02-20T07:30:48;6.80;99.90
15239;DHT22;7722;53.274;9.500;2023-02-20T07:33:16;6.90;99.90
15239;DHT22;7722;53.274;9.500;2023-02-20T07:35:45;6.90;99.90
15239;DHT22;7722;53.274;9.500;2023-02-20T07:38:12;6.90;99.90
15239;DHT22;7722;53.274;9.500;2023-02-20T07:40:39;6.80;99.90
15239;DHT22;7722;53.274;9.500;2023-02-20T07:43:06;6.90;99.90
15239;DHT22;7722;53.274;9.500;2023-02-20T07:45:33;6.90;99.90
15239;DHT22;7722;53.274;9.500;2023-02-20T07:48:00;6.90;99.90
15239;DHT22;7722;53.274;9.500;2023-02-20T07:50:27;6.90;99.90
15239;DHT22;7722;53.274;9.500;2023-02-20T07:52:55;7.00;99.90
15239;DHT22;7722;53.274;9.500;2023-02-20T07:55:22;7.00;99.90
15239;DHT22;7722;53.274;9.500;2023-02-20T07:57:49;7.00;99.90
15239;DHT22;7722;53.274;9.500;2023-02-20T08:00:20;7.00;99.90
15239;DHT22;7722;53.274;9.500;2023-02-20T08:02:48;7.00;99.90
15239;DHT22;7722;53.274;9.500;2023-02-20T08:05:15;7.00;99.90
15239;DHT22;7722;53.274;9.500;2023-02-20T08:07:46;7.00;99.90
15239;DHT22;7722;53.274;9.500;2023-02-20T08:10:16;7.00;99.90
15239;DHT22;7722;53.274;9.500;2023-02-20T08:12:44;7.00;99.90
15239;DHT22;7722;53.274;9.500;2023-02-20T08:15:11;7.00;99.90
15239;DHT22;7722;53.274;9.500;2023-02-20T08:17:38;7.10;99.90
15239;DHT22;7722;53.274;9.500;2023-02-20T08:20:06;7.10;99.90
15239;DHT22;7722;53.274;9.500;2023-02-20T08:22:34;7.10;99.90
15239;DHT22;7722;53.274;9.500;2023-02-20T08:25:01;7.10;99.90
15239;DHT22;7722;53.274;9.500;2023-02-20T08:27:30;7.20;99.90
15239;DHT22;7722;53.274;9.500;2023-02-20T08:29:58;7.20;99.90
15239;DHT22;7722;53.274;9.500;2023-02-20T08:32:25;7.30;99.90
15239;DHT22;7722;53.274;9.500;2023-02-20T08:34:52;7.30;99.90
15239;DHT22;7722;53.274;9.500;2023-02-20T08:37:19;7.30;99.90
15239;DHT22;7722;53.274;9.500;2023-02-20T08:39:46;7.30;99.90
15239;DHT22;7722;53.274;9.500;2023-02-20T08:42:14;7.40;99.90
15239;DHT22;7722;53.274;9.500;2023-02-20T08:44:43;7.40;99.90
15239;DHT22;7722;53.274;9.500;2023-02-20T08:47:10;7.50;99.90
15239;DHT22;7722;53.274;9.500;2023-02-20T08:49:37;7.50;99.90
15239;DHT22;7722;53.274;9.500;2023-02-20T08:52:04;7.50;99.90
15239;DHT22;7722;53.274;9.500;2023-02-20T08:54:31;7.50;99.90
15239;DHT22;7722;53.274;9.500;2023-02-20T08:56:58;7.60;99.90
15239;DHT22;7722;53.274;9.500;2023-02-20T08:59:25;7.60;99.90
15239;DHT22;7722;53.274;9.500;2023-02-20T09:01:53;7.60;99.90
15239;DHT22;7722;53.274;9.500;2023-02-20T09:04:20;7.60;99.90
15239;DHT22;7722;53.274;9.500;2023-02-20T09:06:48;7.60;99.90
15239;DHT22;7722;53.274;9.500;2023-02-20T09:09:15;7.60;99.90
15239;DHT22;7722;53.274;9.500;2023-02-20T09:11:42;7.60;99.90
15239;DHT22;7722;53.274;9.500;2023-02-20T09:14:09;7.60;99.90
15239;DHT22;7722;53.274;9.500;2023-02-20T09:16:36;7.70;99.90
15239;DHT22;7722;53.274;9.500;2023-02-20T09:19:07;7.70;99.90
15239;DHT22;7722;53.274;9.500;2023-02-20T09:21:34;7.70;99.90
15239;DHT22;7722;53.274;9.500;2023-02-20T09:24:02;7.70;99.90
15239;DHT22;7722;53.274;9.500;2023-02-20T09:26:30;7.70;99.90
15239;DHT22;7722;53.274;9.500;2023-02-20T09:28:57;7.70;99.90
15239;DHT22;7722;53.274;9.500;2023-02-20T09:31:24;7.70;99.90
15239;DHT22;7722;53.274;9.500;2023-02-20T09:33:51;7.80;99.90
15239;DHT22;7722;53.274;9.500;2023-02-20T09:36:20;7.80;99.90
15239;DHT22;7722;53.274;9.500;2023-02-20T09:38:47;7.80;99.90
15239;DHT22;7722;53.274;9.500;2023-02-20T09:41:24;7.80;99.90
15239;DHT22;7722;53.274;9.500;2023-02-20T09:43:58;7.80;99.90
15239;DHT22;7722;53.274;9.500;2023-02-20T09:46:26;7.80;99.90
15239;DHT22;7722;53.274;9.500;2023-02-20T09:49:02;7.80;99.90
15239;DHT22;7722;53.274;9.500;2023-02-20T09:51:33;7.90;99.90
15239;DHT22;7722;53.274;9.500;2023-02-20T09:54:04;7.90;99.90
15239;DHT22;7722;53.274;9.500;2023-02-20T09:56:36;7.90;99.90
15239;DHT22;7722;53.274;9.500;2023-02-20T09:59:08;7.90;99.90
15239;DHT22;7722;53.274;9.500;2023-02-20T10:01:40;7.90;99.90
15239;DHT22;7722;53.274;9.500;2023-02-20T10:04:12;8.00;99.90
15239;DHT22;7722;53.274;9.500;2023-02-20T10:06:43;8.00;99.90
15239;DHT22;7722;53.274;9.500;2023-02-20T10:09:13;8.00;99.90
15239;DHT22;7722;53.274;9.500;2023-02-20T10:11:49;8.10;99.90
15239;DHT22;7722;53.274;9.500;2023-02-20T10:14:38;8.10;99.90
15239;DHT22;7722;53.274;9.500;2023-02-20T10:17:18;8.10;99.90
15239;DHT22;7722;53.274;9.500;2023-02-20T10:19:51;8.10;99.90
15239;DHT22;7722;53.274;9.500;2023-02-20T10:22:23;8.10;99.90
15239;DHT22;7722;53.274;9.500;2023-02-20T10:25:07;8.20;99.90
15239;DHT22;7722;53.274;9.500;2023-02-20T10:27:46;8.20;99.90
15239;DHT22;7722;53.274;9.500;2023-02-20T10:30:22;8.20;99.90
15239;DHT22;7722;53.274;9.500;2023-02-20T10:32:54;8.20;99.90
15239;DHT22;7722;53.274;9.500;2023-02-20T10:35:24;8.20;99.90
15239;DHT22;7722;53.274;9.500;2023-02-20T10:37:56;8.20;99.90
15239;DHT22;7722;53.274;9.500;2023-02-20T10:40:27;8.30;99.90
15239;DHT22;7722;53.274;9.500;2023-02-20T10:43:00;8.30;99.90
15239;DHT22;7722;53.274;9.500;2023-02-20T10:45:36;8.40;99.90
15239;DHT22;7722;53.274;9.500;2023-02-20T10:48:06;8.40;99.90
15239;DHT22;7722;53.274;9.500;2023-02-20T10:50:38;8.40;99.90
15239;DHT22;7722;53.274;9.500;2023-02-20T10:53:15;8.50;99.90
15239;DHT22;7722;53.274;9.500;2023-02-20T10:55:50;8.50;99.90
15239;DHT22;7722;53.274;9.500;2023-02-20T10:58:21;8.50;99.90
15239;DHT22;7722;53.274;9.500;2023-02-20T11:00:52;8.50;99.90
15239;DHT22;7722;53.274;9.500;2023-02-20T11:03:23;8.50;99.90
15239;DHT22;7722;53.274;9.500;2023-02-20T11:05:53;8.50;99.90
15239;DHT22;7722;53.274;9.500;2023-02-20T11:08:22;8.50;99.90
15239;DHT22;7722;53.274;9.500;2023-02-20T11:10:54;8.60;99.90
15239;DHT22;7722;53.274;9.500;2023-02-20T11:13:23;8.60;99.90
15239;DHT22;7722;53.274;9.500;2023-02-20T11:15:53;8.60;99.90
15239;DHT22;7722;53.274;9.500;2023-02-20T11:18:23;8.60;99.90
15239;DHT22;7722;53.274;9.500;2023-02-20T11:20:53;8.70;99.90
15239;DHT22;7722;53.274;9.500;2023-02-20T11:23:49;8.60;99.90
15239;DHT22;7722;53.274;9.500;2023-02-20T11:26:27;8.70;99.90
15239;DHT22;7722;53.274;9.500;2023-02-20T11:29:03;8.60;99.90
15239;DHT22;7722;53.274;9.500;2023-02-20T11:31:31;8.70;99.90
15239;DHT22;7722;53.274;9.500;2023-02-20T11:34:01;8.60;99.90
15239;DHT22;7722;53.274;9.500;2023-02-20T11:36:36;8.60;99.90
15239;DHT22;7722;53.274;9.500;2023-02-20T11:39:16;8.70;99.90
15239;DHT22;7722;53.274;9.500;2023-02-20T11:41:45;8.70;99.90
15239;DHT22;7722;53.274;9.500;2023-02-20T11:44:21;8.70;99.90
15239;DHT22;7722;53.274;9.500;2023-02-20T11:47:17;8.70;99.90
15239;DHT22;7722;53.274;9.500;2023-02-20T11:49:44;8.70;99.90
15239;DHT22;7722;53.274;9.500;2023-02-20T11:52:16;8.80;99.90
15239;DHT22;7722;53.274;9.500;2023-02-20T11:54:45;8.80;99.90
15239;DHT22;7722;53.274;9.500;2023-02-20T11:57:22;8.90;99.90
15239;DHT22;7722;53.274;9.500;2023-02-20T12:00:06;8.90;99.90
15239;DHT22;7722;53.274;9.500;2023-02-20T12:02:33;9.00;99.90
15239;DHT22;7722;53.274;9.500;2023-02-20T12:05:04;9.10;99.90
15239;DHT22;7722;53.274;9.500;2023-02-20T12:07:35;9.10;99.90
15239;DHT22;7722;53.274;9.500;2023-02-20T12:12:51;9.20;99.90
15239;DHT22;7722;53.274;9.500;2023-02-20T12:15:21;9.30;99.90
15239;DHT22;7722;53.274;9.500;2023-02-20T12:18:09;9.30;99.90
15239;DHT22;7722;53.274;9.500;2023-02-20T12:20:40;9.30;99.90
15239;DHT22;7722;53.274;9.500;2023-02-20T12:23:18;9.30;99.90
15239;DHT22;7722;53.274;9.500;2023-02-20T12:25:58;9.30;99.90
15239;DHT22;7722;53.274;9.500;2023-02-20T12:28:34;9.40;99.90
15239;DHT22;7722;53.274;9.500;2023-02-20T12:31:11;9.40;99.90
15239;DHT22;7722;53.274;9.500;2023-02-20T12:33:56;9.40;99.90
15239;DHT22;7722;53.274;9.500;2023-02-20T12:36:30;9.40;99.90
15239;DHT22;7722;53.274;9.500;2023-02-20T12:39:03;9.50;99.90
15239;DHT22;7722;53.274;9.500;2023-02-20T12:41:49;9.40;99.90
15239;DHT22;7722;53.274;9.500;2023-02-20T12:44:33;9.40;99.90
15239;DHT22;7722;53.274;9.500;2023-02-20T12:47:16;9.40;99.90
15239;DHT22;7722;53.274;9.500;2023-02-20T12:49:53;9.40;99.90
15239;DHT22;7722;53.274;9.500;2023-02-20T12:52:34;9.40;99.90
15239;DHT22;7722;53.274;9.500;2023-02-20T12:55:12;9.40;99.90
15239;DHT22;7722;53.274;9.500;2023-02-20T12:57:49;9.40;99.90
15239;DHT22;7722;53.274;9.500;2023-02-20T13:00:27;9.40;99.90
15239;DHT22;7722;53.274;9.500;2023-02-20T13:03:00;9.40;99.90
15239;DHT22;7722;53.274;9.500;2023-02-20T13:05:32;9.30;99.90
15239;DHT22;7722;53.274;9.500;2023-02-20T13:08:03;9.40;99.90
15239;DHT22;7722;53.274;9.500;2023-02-20T13:10:44;9.40;99.90
15239;DHT22;7722;53.274;9.500;2023-02-20T13:13:14;9.40;99.90
15239;DHT22;7722;53.274;9.500;2023-02-20T13:15:50;9.40;99.90
15239;DHT22;7722;53.274;9.500;2023-02-20T13:18:26;9.40;99.90
15239;DHT22;7722;53.274;9.500;2023-02-20T13:20:57;9.40;99.90
15239;DHT22;7722;53.274;9.500;2023-02-20T13:23:29;9.40;99.90
15239;DHT22;7722;53.274;9.500;2023-02-20T13:25:56;9.30;99.90
15239;DHT22;7722;53.274;9.500;2023-02-20T13:28:33;9.40;99.90
15239;DHT22;7722;53.274;9.500;2023-02-20T13:31:10;9.40;99.90
15239;DHT22;7722;53.274;9.500;2023-02-20T13:33:39;9.30;99.90
15239;DHT22;7722;53.274;9.500;2023-02-20T13:39:25;9.20;99.90
15239;DHT22;7722;53.274;9.500;2023-02-20T13:41:57;9.30;99.90
15239;DHT22;7722;53.274;9.500;2023-02-20T13:44:41;9.20;99.90
15239;DHT22;7722;53.274;9.500;2023-02-20T13:47:33;9.20;99.90
15239;DHT22;7722;53.274;9.500;2023-02-20T13:50:01;9.20;99.90
15239;DHT22;7722;53.274;9.500;2023-02-20T13:52:38;9.20;99.90
15239;DHT22;7722;53.274;9.500;2023-02-20T13:55:17;9.20;99.90
15239;DHT22;7722;53.274;9.500;2023-02-20T13:57:47;9.20;99.90
15239;DHT22;7722;53.274;9.500;2023-02-20T14:00:25;9.20;99.90
15239;DHT22;7722;53.274;9.500;2023-02-20T14:02:52;9.10;99.90
15239;DHT22;7722;53.274;9.500;2023-02-20T14:05:22;9.10;99.90
15239;DHT22;7722;53.274;9.500;2023-02-20T14:07:49;9.20;99.90
15239;DHT22;7722;53.274;9.500;2023-02-20T14:10:23;9.20;99.90
15239;DHT22;7722;53.274;9.500;2023-02-20T14:12:56;9.10;99.90
15239;DHT22;7722;53.274;9.500;2023-02-20T14:15:27;9.10;99.90
15239;DHT22;7722;53.274;9.500;2023-02-20T14:17:56;9.10;99.90
15239;DHT22;7722;53.274;9.500;2023-02-20T14:20:31;9.10;99.90
15239;DHT22;7722;53.274;9.500;2023-02-20T14:23:09;9.20;99.90
15239;DHT22;7722;53.274;9.500;2023-02-20T14:25:41;9.10;99.90
15239;DHT22;7722;53.274;9.500;2023-02-20T14:28:12;9.10;99.90
15239;DHT22;7722;53.274;9.500;2023-02-20T14:30:41;9.10;99.90
15239;DHT22;7722;53.274;9.500;2023-02-20T14:33:19;9.00;99.90
15239;DHT22;7722;53.274;9.500;2023-02-20T14:36:19;9.00;99.90
15239;DHT22;7722;53.274;9.500;2023-02-20T14:38:58;9.00;99.90
15239;DHT22;7722;53.274;9.500;2023-02-20T14:41:27;9.00;99.90
15239;DHT22;7722;53.274;9.500;2023-02-20T14:43:57;9.10;99.90
15239;DHT22;7722;53.274;9.500;2023-02-20T14:46:27;9.00;99.90
15239;DHT22;7722;53.274;9.500;2023-02-20T14:49:07;9.00;99.90
15239;DHT22;7722;53.274;9.500;2023-02-20T14:51:35;9.10;99.90
15239;DHT22;7722;53.274;9.500;2023-02-20T14:54:09;9.10;99.90
15239;DHT22;7722;53.274;9.500;2023-02-20T14:56:41;9.10;99.90
15239;DHT22;7722;53.274;9.500;2023-02-20T14:59:31;9.10;99.90
15239;DHT22;7722;53.274;9.500;2023-02-20T15:02:02;9.10;99.90
15239;DHT22;7722;53.274;9.500;2023-02-20T15:04:29;9.10;99.90
15239;DHT22;7722;53.274;9.500;2023-02-20T15:07:02;9.10;99.90
15239;DHT22;7722;53.274;9.500;2023-02-20T15:09:37;9.10;99.90
15239;DHT22;7722;53.274;9.500;2023-02-20T15:12:05;9.10;99.90
15239;DHT22;7722;53.274;9.500;2023-02-20T15:14:36;9.10;99.90
15239;DHT22;7722;53.274;9.500;2023-02-20T15:17:13;9.20;99.90
15239;DHT22;7722;53.274;9.500;2023-02-20T15:19:44;9.20;99.90
15239;DHT22;7722;53.274;9.500;2023-02-20T15:22:25;9.20;99.90
15239;DHT22;7722;53.274;9.500;2023-02-20T15:24:52;9.20;99.90
15239;DHT22;7722;53.274;9.500;2023-02-20T15:27:21;9.30;99.90
15239;DHT22;7722;53.274;9.500;2023-02-20T15:30:11;9.30;99.90
15239;DHT22;7722;53.274;9.500;2023-02-20T15:32:41;9.30;99.90
15239;DHT22;7722;53.274;9.500;2023-02-20T15:35:13;9.30;99.90
15239;DHT22;7722;53.274;9.500;2023-02-20T15:37:41;9.30;99.90
15239;DHT22;7722;53.274;9.500;2023-02-20T15:40:17;9.30;99.90
15239;DHT22;7722;53.274;9.500;2023-02-20T15:46:45;9.30;99.90
15239;DHT22;7722;53.274;9.500;2023-02-20T15:49:35;9.30;99.90
15239;DHT22;7722;53.274;9.500;2023-02-20T15:56:13;9.40;99.90
15239;DHT22;7722;53.274;9.500;2023-02-20T16:02:09;9.40;99.90
15239;DHT22;7722;53.274;9.500;2023-02-20T16:04:53;9.40;99.90
15239;DHT22;7722;53.274;9.500;2023-02-20T16:07:21;9.40;99.90
15239;DHT22;7722;53.274;9.500;2023-02-20T16:12:55;9.40;99.90
15239;DHT22;7722;53.274;9.500;2023-02-20T16:15:41;9.30;99.90
15239;DHT22;7722;53.274;9.500;2023-02-20T16:18:37;9.30;99.90
15239;DHT22;7722;53.274;9.500;2023-02-20T16:24:58;9.10;99.90
15239;DHT22;7722;53.274;9.500;2023-02-20T16:29:07;9.20;99.90
15239;DHT22;7722;53.274;9.500;2023-02-20T16:36:15;9.20;99.90
15239;DHT22;7722;53.274;9.500;2023-02-20T16:37:58;9.20;99.90
15239;DHT22;7722;53.274;9.500;2023-02-20T16:50:52;9.10;99.90
15239;DHT22;7722;53.274;9.500;2023-02-20T16:54:03;9.00;99.90
15239;DHT22;7722;53.274;9.500;2023-02-20T16:56:56;9.00;99.90
15239;DHT22;7722;53.274;9.500;2023-02-20T17:03:16;8.90;99.90
15239;DHT22;7722;53.274;9.500;2023-02-20T17:06:16;8.90;99.90
15239;DHT22;7722;53.274;9.500;2023-02-20T17:09:49;8.90;99.90
15239;DHT22;7722;53.274;9.500;2023-02-20T17:13:23;8.90;99.90
15239;DHT22;7722;53.274;9.500;2023-02-20T17:16:18;8.90;99.90
15239;DHT22;7722;53.274;9.500;2023-02-20T17:19:20;8.90;99.90
15239;DHT22;7722;53.274;9.500;2023-02-20T17:25:19;8.90;99.90
15239;DHT22;7722;53.274;9.500;2023-02-20T17:28:09;9.00;99.90
15239;DHT22;7722;53.274;9.500;2023-02-20T17:30:37;8.90;99.90